Pagina principale
METAR-TAF:

METAR-TAF

Aeroporti :

Aeroporto di Berna

Berna, Svizzera

latitudine: 46-55N, longitudine: 007-30E, altezza: 505 m

Osservazione

Il bollettino è stato emesso 10 minuti fa, alle 23:20 UTC
Vento 6 kt da est
Temperature 7°C
Umidità 100%
Pressione 1010 hPa
Visibilità 10 km o più
Nubi sparse ad un'altezza di 4400 ft
Nubi sparse ad un'altezza di 4900 ft

METAR: LSZB 152320Z AUTO 10006KT 9999 SCT044 SCT049 07/07 Q1010

Ora: 01:30 (23:30 UTC)

Previsione

Il bollettino è stato emesso 9 ore e 5 minuti fa, alle 14:25 UTC
Previsione valida dal 15 alle 15 UTC al 15 alle 24 UTC
Vento 6 kt da ovest
Visibilità 10 km o più
Nubi sparse ad un'altezza di 3500 ft
Nuvoloso ad un'altezza di 4500 ft
Temporaneamente
dal 15 alle 15 UTC al 15 alle 24 UTC
pioggia

TAF: LSZB 151425Z 1515/1524 28006KT 9999 SCT035 BKN045 TEMPO 1515/1524 RA

Osservazioni e previsioni meteorologiche di più di 4000 aeroporti (messaggi METAR e TAF).

Le stazioni disponibili sono rappresentate dai dischi gialli e rossi sulla carta.

Puntare il mouse per vedere il nome della stazione.

Clicca sopra per visualizzare le osservazioni e previsioni meteorologiche.

Per cambiare la mappa : fare clic sui pulsanti verdi con una croce nera per ingrandire, il pulsante verde con un trattino per diminuire, o sulla freccia verde per le mappe adiacenti.


METAR-TAF: